Huron, South Dakota
Current Conditions -  °F | °C
As of 1:55 PM on Sunday 25 Jan 2015 (Local Time) from KHON Reporting Station
Overcast Overcast  
Wind Chill: 27°   Ceiling: 800
Heat Index: 33°   Visibility: 10mi
Dew Point: 29°   Wind: 7mph
Humidity: 85%   Direction: 320°NW
Pressure: 30.03"   Gusts: NA
Location:  44.36°N, 98.21°W
Report Text: KHON 251955Z AUTO 32006KT 10SM OVC008 01/M02 A3003 RMK AO2 SLP184 T00061017
Loading
Personal Weather Stations






























Interactive Weather Map New forecast layout! Learn more

10-Day Weather Forecast

Advertisements
Track Severe Weather on mobile